createdAt,value
2018-10-11T00:00:33.419Z,934.87
2018-10-11T00:01:33.486Z,934.80
2018-10-11T00:02:33.390Z,934.82
2018-10-11T00:03:33.423Z,934.81
2018-10-11T00:04:33.419Z,934.78
2018-10-11T00:05:33.385Z,934.85
2018-10-11T00:06:33.366Z,934.82
2018-10-11T00:07:33.496Z,934.90
2018-10-11T00:08:33.392Z,934.92
2018-10-11T00:09:33.355Z,934.94
2018-10-11T00:10:33.353Z,934.95
2018-10-11T00:11:33.326Z,935.03
2018-10-11T00:12:33.308Z,934.97
2018-10-11T00:13:33.310Z,934.94
2018-10-11T00:14:33.494Z,934.90
2018-10-11T00:15:33.302Z,934.89
2018-10-11T00:16:33.282Z,934.92
2018-10-11T00:17:33.273Z,934.88
2018-10-11T00:18:33.494Z,934.86
2018-10-11T00:19:33.269Z,934.88
2018-10-11T00:20:33.258Z,934.83
2018-10-11T00:21:33.250Z,934.87
2018-10-11T00:22:33.249Z,934.82
2018-10-11T00:23:33.326Z,934.84
2018-10-11T00:24:33.206Z,934.85
2018-10-11T00:25:33.204Z,934.86
2018-10-11T00:26:33.207Z,934.91
2018-10-11T00:27:33.193Z,934.90
2018-10-11T00:28:33.230Z,934.86
2018-10-11T00:29:33.188Z,934.90
2018-10-11T00:30:33.205Z,934.87
2018-10-11T00:31:33.162Z,934.93
2018-10-11T00:32:33.163Z,934.94
2018-10-11T00:33:33.195Z,934.95
2018-10-11T00:34:33.151Z,934.92
2018-10-11T00:35:33.129Z,934.95
2018-10-11T00:36:33.116Z,934.85
2018-10-11T00:37:33.116Z,934.85
2018-10-11T00:38:33.107Z,934.87
2018-10-11T00:39:33.199Z,934.85
2018-10-11T00:40:33.134Z,934.87
2018-10-11T00:41:33.077Z,934.86
2018-10-11T00:42:33.100Z,934.84
2018-10-11T00:43:33.073Z,934.87
2018-10-11T00:44:33.090Z,934.89
2018-10-11T00:45:33.047Z,934.88
2018-10-11T00:46:33.038Z,934.85
2018-10-11T00:47:33.038Z,934.86
2018-10-11T00:48:33.049Z,934.89
2018-10-11T00:49:33.171Z,934.89
2018-10-11T00:50:33.062Z,934.91
2018-10-11T00:51:33.004Z,934.94
2018-10-11T00:52:32.988Z,935.00
2018-10-11T00:53:33.030Z,935.02
2018-10-11T00:54:32.990Z,935.06
2018-10-11T00:55:33.079Z,935.14
2018-10-11T00:56:32.976Z,935.18
2018-10-11T00:57:32.964Z,935.20
2018-10-11T00:58:32.939Z,935.22
2018-10-11T00:59:32.939Z,935.25
2018-10-11T01:00:33.129Z,935.27
2018-10-11T01:01:32.943Z,935.31
2018-10-11T01:02:32.898Z,935.28
2018-10-11T01:03:32.895Z,935.31
2018-10-11T01:04:32.923Z,935.25
2018-10-11T01:05:32.909Z,935.28
2018-10-11T01:06:34.101Z,935.29
2018-10-11T01:07:32.898Z,935.29
2018-10-11T01:08:32.883Z,935.26
2018-10-11T01:09:32.855Z,935.30
2018-10-11T01:10:32.895Z,935.33
2018-10-11T01:11:32.861Z,935.31
2018-10-11T01:12:32.868Z,935.26
2018-10-11T01:13:32.839Z,935.30
2018-10-11T01:14:32.825Z,935.27
2018-10-11T01:15:32.818Z,935.30
2018-10-11T01:16:32.802Z,935.28
2018-10-11T01:17:32.796Z,935.32
2018-10-11T01:18:32.780Z,935.32
2018-10-11T01:19:32.829Z,935.32
2018-10-11T01:20:32.794Z,935.33
2018-10-11T01:21:32.759Z,935.34
2018-10-11T01:22:32.758Z,935.32
2018-10-11T01:23:32.749Z,935.33
2018-10-11T01:24:32.731Z,935.38
2018-10-11T01:25:32.738Z,935.38
2018-10-11T01:26:32.736Z,935.40
2018-10-11T01:27:32.730Z,935.38
2018-10-11T01:28:32.723Z,935.40
2018-10-11T01:29:32.779Z,935.38
2018-10-11T01:30:32.746Z,935.39
2018-10-11T01:31:32.713Z,935.33
2018-10-11T01:32:32.688Z,935.38
2018-10-11T01:33:32.725Z,935.37
2018-10-11T01:34:32.662Z,935.37
2018-10-11T01:35:32.667Z,935.41
2018-10-11T01:36:32.644Z,935.37
2018-10-11T01:37:32.632Z,935.39
2018-10-11T01:38:32.670Z,935.44
2018-10-11T01:39:32.641Z,935.44
2018-10-11T01:40:32.625Z,935.47
2018-10-11T01:41:32.721Z,935.45
2018-10-11T01:42:32.599Z,935.45
2018-10-11T01:43:32.602Z,935.44
2018-10-11T01:44:32.606Z,935.41
2018-10-11T01:45:32.589Z,935.42
2018-10-11T01:46:32.579Z,935.44
2018-10-11T01:47:32.555Z,935.41
2018-10-11T01:48:32.560Z,935.47
2018-10-11T01:49:32.546Z,935.49
2018-10-11T01:50:32.549Z,935.49
2018-10-11T01:51:32.646Z,935.52
2018-10-11T01:52:32.537Z,935.51
2018-10-11T01:53:32.540Z,935.48
2018-10-11T01:54:32.529Z,935.51
2018-10-11T01:55:32.525Z,935.50
2018-10-11T01:56:32.526Z,935.51
2018-10-11T01:57:32.581Z,935.51
2018-10-11T01:58:32.473Z,935.56
2018-10-11T01:59:32.470Z,935.55
2018-10-11T02:00:32.473Z,935.53
2018-10-11T02:01:32.456Z,935.53
2018-10-11T02:02:32.448Z,935.61
2018-10-11T02:03:32.687Z,935.56
2018-10-11T02:04:32.446Z,935.57
2018-10-11T02:05:32.431Z,935.60
2018-10-11T02:06:32.401Z,935.60
2018-10-11T02:07:32.412Z,935.61
2018-10-11T02:08:32.400Z,935.62
2018-10-11T02:09:32.547Z,935.62
2018-10-11T02:10:32.416Z,935.63
2018-10-11T02:11:32.380Z,935.64
2018-10-11T02:12:32.420Z,935.67
2018-10-11T02:13:32.369Z,935.66
2018-10-11T02:14:32.667Z,935.67
2018-10-11T02:15:32.362Z,935.63
2018-10-11T02:16:32.367Z,935.74
2018-10-11T02:17:32.348Z,935.70
2018-10-11T02:18:32.329Z,935.67
2018-10-11T02:19:32.327Z,935.73
2018-10-11T02:20:32.353Z,935.66
2018-10-11T02:21:32.343Z,935.66
2018-10-11T02:22:32.274Z,935.67
2018-10-11T02:23:32.283Z,935.68
2018-10-11T02:24:32.301Z,935.69
2018-10-11T02:25:32.351Z,935.61
2018-10-11T02:26:32.246Z,935.65
2018-10-11T02:27:32.264Z,935.68
2018-10-11T02:28:32.248Z,935.67
2018-10-11T02:29:32.237Z,935.64
2018-10-11T02:30:32.378Z,935.67
2018-10-11T02:31:32.229Z,935.64
2018-10-11T02:32:32.204Z,935.66
2018-10-11T02:33:32.227Z,935.60
2018-10-11T02:34:32.215Z,935.56
2018-10-11T02:35:32.208Z,935.58
2018-10-11T02:36:32.317Z,935.60
2018-10-11T02:37:32.212Z,935.58
2018-10-11T02:38:32.180Z,935.59
2018-10-11T02:39:32.168Z,935.59
2018-10-11T02:40:32.150Z,935.58
2018-10-11T02:41:32.181Z,935.57
2018-10-11T02:42:32.127Z,935.55
2018-10-11T02:43:32.126Z,935.52
2018-10-11T02:44:32.134Z,935.55
2018-10-11T02:45:32.173Z,935.53
2018-10-11T02:46:32.196Z,935.57
2018-10-11T02:47:32.085Z,935.55
2018-10-11T02:48:32.099Z,935.58
2018-10-11T02:49:32.109Z,935.63
2018-10-11T02:50:32.088Z,935.65
2018-10-11T02:51:32.077Z,935.66
2018-10-11T02:52:32.071Z,935.69
2018-10-11T02:53:32.036Z,935.68
2018-10-11T02:54:32.047Z,935.66
2018-10-11T02:55:32.045Z,935.66
2018-10-11T02:56:32.046Z,935.64
2018-10-11T02:57:32.058Z,935.61
2018-10-11T02:58:32.047Z,935.60
2018-10-11T02:59:32.005Z,935.55
2018-10-11T03:00:32.031Z,935.61
2018-10-11T03:01:32.001Z,935.53
2018-10-11T03:02:32.282Z,935.59
2018-10-11T03:03:31.975Z,935.59
2018-10-11T03:04:31.970Z,935.68
2018-10-11T03:05:31.966Z,935.69
2018-10-11T03:06:31.988Z,935.64
2018-10-11T03:07:31.945Z,935.72
2018-10-11T03:08:31.958Z,935.73
2018-10-11T03:09:31.931Z,935.76
2018-10-11T03:10:31.912Z,935.72
2018-10-11T03:11:31.930Z,935.72
2018-10-11T03:12:32.005Z,935.69
2018-10-11T03:13:31.891Z,935.66
2018-10-11T03:14:31.891Z,935.67
2018-10-11T03:15:31.917Z,935.68
2018-10-11T03:16:31.861Z,935.65
2018-10-11T03:17:31.897Z,935.65
2018-10-11T03:18:31.846Z,935.66
2018-10-11T03:19:31.894Z,935.65
2018-10-11T03:20:31.829Z,935.65
2018-10-11T03:21:31.830Z,935.64
2018-10-11T03:22:31.808Z,935.61
2018-10-11T03:23:31.812Z,935.63
2018-10-11T03:24:31.815Z,935.57
2018-10-11T03:25:31.787Z,935.56
2018-10-11T03:26:31.786Z,935.52
2018-10-11T03:27:31.769Z,935.52
2018-10-11T03:28:31.775Z,935.48
2018-10-11T03:29:31.762Z,935.47
2018-10-11T03:30:31.777Z,935.43
2018-10-11T03:31:31.761Z,935.38
2018-10-11T03:32:31.744Z,935.38
2018-10-11T03:33:31.743Z,935.39
2018-10-11T03:34:31.726Z,935.36
2018-10-11T03:35:31.761Z,935.34
2018-10-11T03:36:31.716Z,935.27
2018-10-11T03:37:31.686Z,935.32
2018-10-11T03:38:31.695Z,935.28
2018-10-11T03:39:31.687Z,935.29
2018-10-11T03:40:31.682Z,935.26
2018-10-11T03:41:31.662Z,935.25
2018-10-11T03:42:31.639Z,935.21
2018-10-11T03:43:31.657Z,935.21
2018-10-11T03:44:31.743Z,935.18
2018-10-11T03:45:31.638Z,935.19
2018-10-11T03:46:31.692Z,935.13
2018-10-11T03:47:31.641Z,935.16
2018-10-11T03:48:31.653Z,935.12
2018-10-11T03:49:31.617Z,935.10
2018-10-11T03:50:31.590Z,935.10
2018-10-11T03:51:31.576Z,935.03
2018-10-11T03:52:31.564Z,935.03
2018-10-11T03:53:31.582Z,935.02
2018-10-11T03:54:31.575Z,934.98
2018-10-11T03:55:31.668Z,934.97
2018-10-11T03:56:31.574Z,934.96
2018-10-11T03:57:31.542Z,934.95
2018-10-11T03:58:31.526Z,934.91
2018-10-11T03:59:31.537Z,934.90
2018-10-11T04:00:31.538Z,934.92
2018-10-11T04:01:31.519Z,934.88
2018-10-11T04:02:31.507Z,934.94
2018-10-11T04:03:31.505Z,934.94
2018-10-11T04:04:31.475Z,934.97
2018-10-11T04:05:31.488Z,934.95
2018-10-11T04:06:31.474Z,934.99
2018-10-11T04:07:31.468Z,934.97
2018-10-11T04:08:31.457Z,935.02
2018-10-11T04:09:31.456Z,935.02
2018-10-11T04:10:31.436Z,935.02
2018-10-11T04:11:31.427Z,935.01
2018-10-11T04:12:31.461Z,935.06
2018-10-11T04:13:31.400Z,935.04
2018-10-11T04:14:31.412Z,935.00
2018-10-11T04:15:31.486Z,935.03
2018-10-11T04:16:31.370Z,935.06
2018-10-11T04:17:31.358Z,935.03
2018-10-11T04:18:31.379Z,935.03
2018-10-11T04:19:31.353Z,935.08
2018-10-11T04:20:31.344Z,935.02
2018-10-11T04:21:31.358Z,935.02
2018-10-11T04:22:31.345Z,935.04
2018-10-11T04:23:31.341Z,935.04
2018-10-11T04:24:31.333Z,935.02
2018-10-11T04:25:31.312Z,935.06
2018-10-11T04:26:31.312Z,935.05
2018-10-11T04:27:31.292Z,935.04
2018-10-11T04:28:31.288Z,935.01
2018-10-11T04:29:31.272Z,935.01
2018-10-11T04:30:31.297Z,935.02
2018-10-11T04:31:31.271Z,934.96
2018-10-11T04:32:31.260Z,934.94
2018-10-11T04:33:31.253Z,934.96
2018-10-11T04:34:31.248Z,934.93
2018-10-11T04:35:31.234Z,934.96
2018-10-11T04:36:31.235Z,934.96
2018-10-11T04:37:31.214Z,934.91
2018-10-11T04:38:31.205Z,934.94
2018-10-11T04:39:31.183Z,934.95
2018-10-11T04:40:31.193Z,934.94
2018-10-11T04:41:31.185Z,934.91
2018-10-11T04:42:31.179Z,934.89
2018-10-11T04:43:31.165Z,934.93
2018-10-11T04:44:31.172Z,934.91
2018-10-11T04:45:31.151Z,934.90
2018-10-11T04:46:31.183Z,934.91
2018-10-11T04:47:31.138Z,934.90
2018-10-11T04:48:31.117Z,934.94
2018-10-11T04:49:31.123Z,934.94
2018-10-11T04:50:31.115Z,934.92
2018-10-11T04:51:31.104Z,934.90
2018-10-11T04:52:31.068Z,934.91
2018-10-11T04:53:31.116Z,934.87
2018-10-11T04:54:31.057Z,934.91
2018-10-11T04:55:31.077Z,934.86
2018-10-11T04:56:31.048Z,934.86
2018-10-11T04:57:31.052Z,934.85
2018-10-11T04:58:31.050Z,934.84
2018-10-11T04:59:31.029Z,934.84
2018-10-11T05:00:31.022Z,934.86
2018-10-11T05:01:31.007Z,934.87
2018-10-11T05:02:30.990Z,934.89
2018-10-11T05:03:30.987Z,934.89
2018-10-11T05:04:30.986Z,934.88
2018-10-11T05:05:31.079Z,934.90
2018-10-11T05:06:30.963Z,934.91
2018-10-11T05:07:30.984Z,934.88
2018-10-11T05:08:30.944Z,934.89
2018-10-11T05:09:30.956Z,934.92
2018-10-11T05:10:30.925Z,934.88
2018-10-11T05:11:30.946Z,934.88
2018-10-11T05:12:30.926Z,934.88
2018-10-11T05:13:30.916Z,934.88
2018-10-11T05:14:30.910Z,934.91
2018-10-11T05:15:30.900Z,934.91
2018-10-11T05:16:30.887Z,934.92
2018-10-11T05:17:30.950Z,934.93
2018-10-11T05:18:30.899Z,934.95
2018-10-11T05:19:30.902Z,934.92
2018-10-11T05:20:30.847Z,934.92
2018-10-11T05:21:30.900Z,934.91
2018-10-11T05:22:30.829Z,934.93
2018-10-11T05:23:30.822Z,934.92
2018-10-11T05:24:30.834Z,934.90
2018-10-11T05:25:30.843Z,934.90
2018-10-11T05:26:30.804Z,934.88
2018-10-11T05:27:30.808Z,934.90
2018-10-11T05:28:30.778Z,934.87
2018-10-11T05:29:30.793Z,934.87
2018-10-11T05:30:30.766Z,934.88
2018-10-11T05:31:30.805Z,934.87
2018-10-11T05:32:30.792Z,934.86
2018-10-11T05:33:30.753Z,934.90
2018-10-11T05:34:30.746Z,934.83
2018-10-11T05:35:30.727Z,934.81
2018-10-11T05:36:30.727Z,934.82
2018-10-11T05:37:30.720Z,934.81
2018-10-11T05:38:30.745Z,934.77
2018-10-11T05:39:30.710Z,934.72
2018-10-11T05:40:30.703Z,934.70
2018-10-11T05:41:30.684Z,934.69
2018-10-11T05:42:30.680Z,934.67
2018-10-11T05:43:30.671Z,934.67
2018-10-11T05:44:30.753Z,934.63
2018-10-11T05:45:30.671Z,934.68
2018-10-11T05:46:30.685Z,934.65
2018-10-11T05:47:30.655Z,934.65
2018-10-11T05:48:30.633Z,934.63
2018-10-11T05:49:30.613Z,934.60
2018-10-11T05:50:30.612Z,934.63
2018-10-11T05:51:30.629Z,934.61
2018-10-11T05:52:30.598Z,934.59
2018-10-11T05:53:30.587Z,934.57
2018-10-11T05:54:30.572Z,934.56
2018-10-11T05:55:30.569Z,934.56
2018-10-11T05:56:30.577Z,934.55
2018-10-11T05:57:30.661Z,934.55
2018-10-11T05:58:30.540Z,934.54
2018-10-11T05:59:30.523Z,934.54
2018-10-11T06:00:30.530Z,934.46
2018-10-11T06:01:30.514Z,934.48
2018-10-11T06:02:30.507Z,934.50
2018-10-11T06:03:30.490Z,934.48
2018-10-11T06:04:30.487Z,934.45
2018-10-11T06:05:30.491Z,934.44
2018-10-11T06:06:30.506Z,934.42
2018-10-11T06:07:30.505Z,934.40
2018-10-11T06:08:30.474Z,934.40
2018-10-11T06:09:30.482Z,934.42
2018-10-11T06:10:30.454Z,934.41
2018-10-11T06:11:30.494Z,934.37
2018-10-11T06:12:30.483Z,934.37
2018-10-11T06:13:30.727Z,934.36
2018-10-11T06:14:30.434Z,934.40
2018-10-11T06:15:30.445Z,934.37
2018-10-11T06:16:30.390Z,934.31
2018-10-11T06:17:30.380Z,934.34
2018-10-11T06:18:30.385Z,934.30
2018-10-11T06:19:30.372Z,934.30
2018-10-11T06:20:30.376Z,934.29
2018-10-11T06:21:30.363Z,934.29
2018-10-11T06:22:30.344Z,934.32
2018-10-11T06:23:30.348Z,934.29
2018-10-11T06:24:30.345Z,934.28
2018-10-11T06:25:30.374Z,934.30
2018-10-11T06:26:30.301Z,934.32
2018-10-11T06:27:30.325Z,934.25
2018-10-11T06:28:30.324Z,934.27
2018-10-11T06:29:30.379Z,934.29
2018-10-11T06:30:30.298Z,934.25
2018-10-11T06:31:30.262Z,934.33
2018-10-11T06:32:30.247Z,934.28
2018-10-11T06:33:30.255Z,934.30
2018-10-11T06:34:30.264Z,934.33
2018-10-11T06:35:30.250Z,934.32
2018-10-11T06:36:30.318Z,934.33
2018-10-11T06:37:30.238Z,934.34
2018-10-11T06:38:30.214Z,934.34
2018-10-11T06:39:30.227Z,934.32
2018-10-11T06:40:30.197Z,934.31
2018-10-11T06:41:30.200Z,934.34
2018-10-11T06:42:30.240Z,934.34
2018-10-11T06:43:30.201Z,934.33
2018-10-11T06:44:30.171Z,934.33
2018-10-11T06:45:30.512Z,934.29
2018-10-11T06:46:30.173Z,934.34
2018-10-11T06:47:30.145Z,934.37
2018-10-11T06:48:30.150Z,934.34
2018-10-11T06:49:30.137Z,934.36
2018-10-11T06:50:30.214Z,934.32
2018-10-11T06:51:30.120Z,934.33
2018-10-11T06:52:30.099Z,934.31
2018-10-11T06:53:30.082Z,934.29
2018-10-11T06:54:30.093Z,934.30
2018-10-11T06:55:30.102Z,934.29
2018-10-11T06:56:30.304Z,934.30
2018-10-11T06:57:30.069Z,934.31
2018-10-11T06:58:30.060Z,934.32
2018-10-11T06:59:30.069Z,934.32
2018-10-11T07:00:30.050Z,934.35
2018-10-11T07:01:30.038Z,934.32
2018-10-11T07:02:30.019Z,934.35
2018-10-11T07:03:30.010Z,934.34
2018-10-11T07:04:30.016Z,934.34
2018-10-11T07:05:30.016Z,934.31
2018-10-11T07:06:30.000Z,934.30
2018-10-11T07:07:30.288Z,934.30
2018-10-11T07:08:29.959Z,934.29
2018-10-11T07:09:29.969Z,934.27
2018-10-11T07:10:29.959Z,934.27
2018-10-11T07:11:29.954Z,934.25
2018-10-11T07:12:29.943Z,934.24
2018-10-11T07:13:29.946Z,934.26
2018-10-11T07:14:29.924Z,934.31
2018-10-11T07:15:29.932Z,934.32
2018-10-11T07:16:29.903Z,934.35
2018-10-11T07:17:30.017Z,934.38
2018-10-11T07:18:29.905Z,934.39
2018-10-11T07:19:29.927Z,934.42
2018-10-11T07:20:29.932Z,934.44
2018-10-11T07:21:29.868Z,934.45
2018-10-11T07:22:29.859Z,934.44
2018-10-11T07:23:29.973Z,934.43
2018-10-11T07:24:29.854Z,934.44
2018-10-11T07:25:29.822Z,934.44
2018-10-11T07:26:29.832Z,934.43
2018-10-11T07:27:29.842Z,934.43
2018-10-11T07:28:29.822Z,934.48
2018-10-11T07:29:29.799Z,934.46
2018-10-11T07:30:29.808Z,934.46
2018-10-11T07:31:29.796Z,934.49
2018-10-11T07:32:29.765Z,934.51
2018-10-11T07:33:31.284Z,934.51
2018-10-11T07:34:29.819Z,934.49
2018-10-11T07:35:30.009Z,934.52
2018-10-11T07:36:29.755Z,934.51
2018-10-11T07:37:29.740Z,934.56
2018-10-11T07:38:29.731Z,934.56
2018-10-11T07:39:29.748Z,934.59
2018-10-11T07:40:29.799Z,934.57
2018-10-11T07:41:29.713Z,934.61
2018-10-11T07:42:29.717Z,934.61
2018-10-11T07:43:29.692Z,934.62
2018-10-11T07:44:29.697Z,934.62
2018-10-11T07:45:29.684Z,934.62
2018-10-11T07:46:29.659Z,934.64
2018-10-11T07:47:29.720Z,934.65
2018-10-11T07:48:29.709Z,934.66
2018-10-11T07:49:29.641Z,934.71
2018-10-11T07:50:29.655Z,934.76
2018-10-11T07:51:29.627Z,934.77
2018-10-11T07:52:29.639Z,934.80
2018-10-11T07:53:29.615Z,934.77
2018-10-11T07:54:29.604Z,934.79
2018-10-11T07:55:29.895Z,934.77
2018-10-11T07:56:29.584Z,934.79
2018-10-11T07:57:29.578Z,934.76
2018-10-11T07:58:29.565Z,934.77
2018-10-11T07:59:29.575Z,934.76
2018-10-11T08:00:29.601Z,934.73
2018-10-11T08:01:29.903Z,934.77
2018-10-11T08:02:29.554Z,934.77
2018-10-11T08:03:29.616Z,934.70
2018-10-11T08:04:29.532Z,934.76
2018-10-11T08:05:29.510Z,934.77
2018-10-11T08:06:29.556Z,934.79
2018-10-11T08:07:29.555Z,934.73
2018-10-11T08:08:29.507Z,934.76
2018-10-11T08:09:29.494Z,934.75
2018-10-11T08:10:29.549Z,934.78
2018-10-11T08:11:29.622Z,934.78
2018-10-11T08:12:29.719Z,934.81
2018-10-11T08:13:29.463Z,934.83
2018-10-11T08:14:29.456Z,934.87
2018-10-11T08:15:29.427Z,934.88
2018-10-11T08:16:29.549Z,934.84
2018-10-11T08:17:29.682Z,934.86
2018-10-11T08:18:29.398Z,934.86
2018-10-11T08:19:29.640Z,934.87
2018-10-11T08:20:29.429Z,934.86
2018-10-11T08:21:29.422Z,934.85
2018-10-11T08:22:29.413Z,934.86
2018-10-11T08:23:29.371Z,934.84
2018-10-11T08:24:29.390Z,934.90
2018-10-11T08:25:29.530Z,934.91
2018-10-11T08:26:29.728Z,934.98
2018-10-11T08:27:29.338Z,934.96
2018-10-11T08:28:29.419Z,934.98
2018-10-11T08:29:29.309Z,935.01
2018-10-11T08:30:29.329Z,935.08
2018-10-11T08:31:29.310Z,935.05
2018-10-11T08:32:29.443Z,935.06
2018-10-11T08:33:29.588Z,935.11
2018-10-11T08:34:29.284Z,935.10
2018-10-11T08:35:29.281Z,935.11
2018-10-11T08:36:29.266Z,935.14
2018-10-11T08:37:29.286Z,935.13
2018-10-11T08:38:29.308Z,935.12
2018-10-11T08:39:29.221Z,935.18
2018-10-11T08:40:29.237Z,935.15
2018-10-11T08:41:29.226Z,935.15
2018-10-11T08:42:29.233Z,935.17
2018-10-11T08:43:29.233Z,935.24
2018-10-11T08:44:29.242Z,935.23
2018-10-11T08:45:29.210Z,935.27
2018-10-11T08:46:29.195Z,935.32
2018-10-11T08:47:29.184Z,935.29
2018-10-11T08:48:29.176Z,935.32
2018-10-11T08:49:29.311Z,935.29
2018-10-11T08:50:29.207Z,935.31
2018-10-11T08:51:29.144Z,935.35
2018-10-11T08:52:29.116Z,935.31
2018-10-11T08:53:29.188Z,935.31
2018-10-11T08:54:29.122Z,935.32
2018-10-11T08:55:29.111Z,935.32
2018-10-11T08:56:29.090Z,935.33
2018-10-11T08:57:29.094Z,935.32
2018-10-11T08:58:29.088Z,935.36
2018-10-11T08:59:29.230Z,935.37
2018-10-11T09:00:29.065Z,935.39
2018-10-11T09:01:29.070Z,935.41
2018-10-11T09:02:29.045Z,935.43
2018-10-11T09:03:29.080Z,935.46
2018-10-11T09:04:29.020Z,935.46
2018-10-11T09:05:29.023Z,935.48
2018-10-11T09:06:29.056Z,935.49
2018-10-11T09:07:28.997Z,935.52
2018-10-11T09:08:28.999Z,935.58
2018-10-11T09:09:29.124Z,935.58
2018-10-11T09:10:38.108Z,935.55
2018-10-11T09:11:29.016Z,935.57
2018-10-11T09:12:28.960Z,935.59
2018-10-11T09:13:28.962Z,935.62
2018-10-11T09:14:29.258Z,935.61
2018-10-11T09:15:28.944Z,935.63
2018-10-11T09:16:28.925Z,935.64
2018-10-11T09:17:28.987Z,935.65
2018-10-11T09:18:28.936Z,935.65
2018-10-11T09:19:28.928Z,935.69
2018-10-11T09:20:28.890Z,935.70
2018-10-11T09:21:28.903Z,935.71
2018-10-11T09:22:28.885Z,935.72
2018-10-11T09:23:28.886Z,935.73
2018-10-11T09:24:28.910Z,935.74
2018-10-11T09:25:29.164Z,935.76
2018-10-11T09:26:28.866Z,935.78
2018-10-11T09:27:28.867Z,935.81
2018-10-11T09:28:28.843Z,935.85
2018-10-11T09:29:28.822Z,935.83
2018-10-11T09:30:28.906Z,935.85
2018-10-11T09:31:28.816Z,935.90
2018-10-11T09:32:28.815Z,935.92
2018-10-11T09:33:28.779Z,935.95
2018-10-11T09:34:28.779Z,935.98
2018-10-11T09:35:28.767Z,936.00
2018-10-11T09:36:28.834Z,936.03
2018-10-11T09:37:28.765Z,936.01
2018-10-11T09:38:28.738Z,936.04
2018-10-11T09:39:28.774Z,936.05
2018-10-11T09:40:28.739Z,936.10
2018-10-11T09:41:28.710Z,936.10
2018-10-11T09:42:28.725Z,936.10
2018-10-11T09:43:28.721Z,936.12
2018-10-11T09:44:28.716Z,936.13
2018-10-11T09:45:28.690Z,936.14
2018-10-11T09:46:28.685Z,936.14
2018-10-11T09:47:28.780Z,936.18
2018-10-11T09:48:28.724Z,936.21
2018-10-11T09:49:28.654Z,936.23
2018-10-11T09:50:28.646Z,936.30
2018-10-11T09:51:28.648Z,936.29
2018-10-11T09:52:28.622Z,936.33
2018-10-11T09:53:28.913Z,936.37
2018-10-11T09:54:28.695Z,936.35
2018-10-11T09:55:28.612Z,936.38
2018-10-11T09:56:28.603Z,936.34
2018-10-11T09:57:28.600Z,936.41
2018-10-11T09:58:28.593Z,936.42
2018-10-11T09:59:28.869Z,936.43
2018-10-11T10:00:28.594Z,936.46
2018-10-11T10:01:28.557Z,936.43
2018-10-11T10:02:28.565Z,936.44
2018-10-11T10:03:28.555Z,936.45
2018-10-11T10:04:28.537Z,936.47
2018-10-11T10:05:28.553Z,936.48
2018-10-11T10:06:28.555Z,936.48
2018-10-11T10:07:28.517Z,936.47
2018-10-11T10:08:28.514Z,936.51
2018-10-11T10:09:28.502Z,936.52
2018-10-11T10:10:28.537Z,936.49
2018-10-11T10:11:28.515Z,936.53
2018-10-11T10:12:28.510Z,936.53
2018-10-11T10:13:28.454Z,936.55
2018-10-11T10:14:28.464Z,936.54
2018-10-11T10:15:28.601Z,936.59
2018-10-11T10:16:28.432Z,936.58
2018-10-11T10:17:28.417Z,936.60
2018-10-11T10:18:28.438Z,936.63
2018-10-11T10:19:28.417Z,936.64
2018-10-11T10:20:28.422Z,936.66
2018-10-11T10:21:28.442Z,936.69
2018-10-11T10:22:28.390Z,936.65
2018-10-11T10:23:28.380Z,936.68
2018-10-11T10:24:28.381Z,936.65
2018-10-11T10:25:29.063Z,936.69
2018-10-11T10:26:28.403Z,936.75
2018-10-11T10:27:28.432Z,936.76
2018-10-11T10:28:28.338Z,936.70
2018-10-11T10:29:28.347Z,936.73
2018-10-11T10:30:28.332Z,936.70
2018-10-11T10:31:28.432Z,936.74
2018-10-11T10:32:28.306Z,936.72
2018-10-11T10:33:28.312Z,936.77
2018-10-11T10:34:28.357Z,936.75
2018-10-11T10:35:28.293Z,936.75
2018-10-11T10:36:28.285Z,936.76
2018-10-11T10:37:28.286Z,936.72
2018-10-11T10:38:28.269Z,936.75
2018-10-11T10:39:28.270Z,936.75
2018-10-11T10:40:28.253Z,936.75
2018-10-11T10:41:28.224Z,936.74
2018-10-11T10:42:28.287Z,936.83
2018-10-11T10:43:28.229Z,936.84
2018-10-11T10:44:28.218Z,936.85
2018-10-11T10:45:28.225Z,936.84
2018-10-11T10:46:28.190Z,936.88
2018-10-11T10:47:28.297Z,936.86
2018-10-11T10:48:28.203Z,936.93
2018-10-11T10:49:28.180Z,936.91
2018-10-11T10:50:28.173Z,936.94
2018-10-11T10:51:28.190Z,936.90
2018-10-11T10:52:28.286Z,936.93
2018-10-11T10:53:28.183Z,936.95
2018-10-11T10:54:28.149Z,936.96
2018-10-11T10:55:28.143Z,936.97
2018-10-11T10:56:28.159Z,937.01
2018-10-11T10:57:28.375Z,937.01
2018-10-11T10:58:28.111Z,937.05
2018-10-11T10:59:28.145Z,937.03
2018-10-11T11:00:28.104Z,937.02
2018-10-11T11:01:28.066Z,937.05
2018-10-11T11:02:28.172Z,937.03
2018-10-11T11:03:28.107Z,937.08
2018-10-11T11:04:28.068Z,937.10
2018-10-11T11:05:28.053Z,937.07
2018-10-11T11:06:28.045Z,937.13
2018-10-11T11:07:28.090Z,937.13
2018-10-11T11:08:28.273Z,937.14
2018-10-11T11:09:28.073Z,937.16
2018-10-11T11:10:28.005Z,937.15
2018-10-11T11:11:28.013Z,937.18
2018-10-11T11:12:28.035Z,937.17
2018-10-11T11:13:28.084Z,937.17
2018-10-11T11:14:27.982Z,937.18
2018-10-11T11:15:27.971Z,937.21
2018-10-11T11:16:27.968Z,937.22
2018-10-11T11:17:27.947Z,937.21
2018-10-11T11:18:27.958Z,937.25
2018-10-11T11:19:27.945Z,937.24
2018-10-11T11:20:27.915Z,937.30
2018-10-11T11:21:27.942Z,937.26
2018-10-11T11:22:27.925Z,937.28
2018-10-11T11:23:27.947Z,937.25
2018-10-11T11:24:27.939Z,937.30
2018-10-11T11:25:27.896Z,937.31
2018-10-11T11:26:27.875Z,937.33
2018-10-11T11:27:27.891Z,937.34
2018-10-11T11:28:27.880Z,937.38
2018-10-11T11:29:27.859Z,937.37
2018-10-11T11:30:27.860Z,937.39
2018-10-11T11:31:27.875Z,937.39
2018-10-11T11:32:27.848Z,937.37
2018-10-11T11:33:27.840Z,937.39
2018-10-11T11:34:27.814Z,937.41
2018-10-11T11:35:27.818Z,937.40
2018-10-11T11:36:27.823Z,937.40
2018-10-11T11:37:27.803Z,937.39
2018-10-11T11:38:27.809Z,937.41
2018-10-11T11:39:27.833Z,937.42
2018-10-11T11:40:27.789Z,937.42
2018-10-11T11:41:27.772Z,937.42
2018-10-11T11:42:27.752Z,937.40
2018-10-11T11:43:27.759Z,937.39
2018-10-11T11:44:27.760Z,937.45
2018-10-11T11:45:27.744Z,937.46
2018-10-11T11:46:27.717Z,937.48
2018-10-11T11:47:27.842Z,937.50
2018-10-11T11:48:27.698Z,937.55
2018-10-11T11:49:27.719Z,937.57
2018-10-11T11:50:27.729Z,937.58
2018-10-11T11:51:27.698Z,937.55
2018-10-11T11:52:27.707Z,937.55
2018-10-11T11:53:27.687Z,937.55
2018-10-11T11:54:27.658Z,937.58
2018-10-11T11:55:27.663Z,937.60
2018-10-11T11:56:27.725Z,937.56
2018-10-11T11:57:27.655Z,937.60
2018-10-11T11:58:27.645Z,937.61
2018-10-11T11:59:27.647Z,937.60
2018-10-11T12:00:27.618Z,937.61
2018-10-11T12:01:27.630Z,937.65
2018-10-11T12:02:27.653Z,937.64
2018-10-11T12:03:27.607Z,937.66
2018-10-11T12:04:27.693Z,937.68
2018-10-11T12:05:27.590Z,937.65
2018-10-11T12:06:27.597Z,937.71
2018-10-11T12:07:27.759Z,937.70
2018-10-11T12:08:27.600Z,937.72
2018-10-11T12:09:27.558Z,937.72
2018-10-11T12:10:27.582Z,937.75
2018-10-11T12:11:27.543Z,937.71
2018-10-11T12:12:27.524Z,937.75
2018-10-11T12:13:27.540Z,937.78
2018-10-11T12:14:27.526Z,937.72
2018-10-11T12:15:27.511Z,937.72
2018-10-11T12:16:27.559Z,937.74
2018-10-11T12:17:27.475Z,937.73
2018-10-11T12:18:27.482Z,937.75
2018-10-11T12:19:27.474Z,937.73
2018-10-11T12:20:27.607Z,937.74
2018-10-11T12:21:27.515Z,937.79
2018-10-11T12:22:27.442Z,937.75
2018-10-11T12:23:27.451Z,937.77
2018-10-11T12:24:27.450Z,937.73
2018-10-11T12:25:27.416Z,937.77
2018-10-11T12:26:27.471Z,937.84
2018-10-11T12:27:27.428Z,937.81
2018-10-11T12:28:27.498Z,937.85